Time;durP1;ratioP1;P1;durP2;ratioP2;P2;SDS_P1;SDS_P2;PMS_P1;PMS_P2;Temp;Humidity;BMP_temperature;BMP_pressure;BME280_temperature;BME280_humidity;BME280_pressure;Samples;Min_cycle;Max_cycle;Signal;HPM_P1;HPM_P2
2023/07/09 00:01:54;;;;;;;4.03;3.03;;;;;;;21.01;46.08;100678.06;5031964;28;20203;-67
2023/07/09 00:04:23;;;;;;;5.93;3.08;;;;;;;20.99;45.91;100693.00;5032467;28;20210;-67
2023/07/09 00:06:52;;;;;;;5.18;2.88;;;;;;;20.95;46.19;100694.03;5032677;28;20226;-66
2023/07/09 00:09:22;;;;;;;3.40;3.10;;;;;;;20.88;46.29;100688.25;5046412;28;20198;-67
2023/07/09 00:11:51;;;;;;;6.15;3.83;;;;;;;20.83;46.45;100687.56;5037120;28;20257;-68
2023/07/09 00:14:19;;;;;;;4.47;3.20;;;;;;;20.80;46.69;100694.72;5032574;28;20551;-68
2023/07/09 00:16:49;;;;;;;3.80;2.88;;;;;;;20.72;46.59;100698.50;5032162;28;20569;-67
2023/07/09 00:19:20;;;;;;;6.28;3.17;;;;;;;20.68;47.05;100699.56;5031720;28;20209;-67
2023/07/09 00:21:52;;;;;;;4.25;3.25;;;;;;;20.64;47.15;100695.38;5040662;28;20679;-67
2023/07/09 00:24:21;;;;;;;4.40;3.60;;;;;;;20.58;47.21;100694.78;5035618;28;20210;-67
2023/07/09 00:26:50;;;;;;;3.63;3.30;;;;;;;20.52;47.35;100689.81;5031612;28;20610;-69
2023/07/09 00:29:18;;;;;;;5.38;3.25;;;;;;;20.51;47.44;100691.59;5033367;28;20198;-68
2023/07/09 00:31:46;;;;;;;8.25;3.42;;;;;;;20.45;47.44;100694.44;5037939;28;20276;-66
2023/07/09 00:34:21;;;;;;;7.18;3.00;;;;;;;20.41;47.57;100704.19;5032348;28;20210;-67
2023/07/09 00:36:50;;;;;;;5.82;3.22;;;;;;;20.36;48.04;100697.41;5035944;28;20251;-66
2023/07/09 00:39:20;;;;;;;5.28;3.10;;;;;;;20.31;48.35;100696.78;5031915;28;20257;-68
2023/07/09 00:41:49;;;;;;;4.32;2.60;;;;;;;20.27;48.26;100711.75;5031566;28;20572;-66
2023/07/09 00:44:30;;;;;;;4.70;3.38;;;;;;;20.27;48.26;100709.13;5031240;28;20241;-67
2023/07/09 00:47:24;;;;;;;3.40;2.70;;;;;;;20.24;48.19;100704.88;5031406;28;20214;-69
2023/07/09 00:50:09;;;;;;;3.67;3.17;;;;;;;20.22;48.60;100703.25;5031453;28;20206;-67
2023/07/09 00:52:45;;;;;;;4.80;3.10;;;;;;;20.19;48.88;100701.59;5031280;28;20233;-67
2023/07/09 00:55:16;;;;;;;3.20;2.90;;;;;;;20.19;48.33;100701.59;5031334;28;20198;-67
2023/07/09 00:57:55;;;;;;;3.30;2.95;;;;;;;20.21;48.47;100704.13;5031295;28;20213;-68
2023/07/09 01:00:35;;;;;;;3.80;2.80;;;;;;;20.20;48.62;100702.44;5036026;28;20260;-68
2023/07/09 01:03:07;;;;;;;3.85;3.03;;;;;;;20.18;48.58;100702.53;5031708;28;20206;-67
2023/07/09 01:05:38;;;;;;;3.55;3.13;;;;;;;20.15;48.70;100694.78;5045231;28;20244;-68
2023/07/09 01:08:08;;;;;;;5.53;2.95;;;;;;;20.14;48.93;100700.94;5035241;28;20593;-68
2023/07/09 01:10:40;;;;;;;3.50;2.47;;;;;;;20.11;48.78;100702.84;5032595;28;20654;-68
2023/07/09 01:13:09;;;;;;;4.63;2.67;;;;;;;20.09;49.03;100708.13;5031088;28;20202;-68
2023/07/09 01:15:38;;;;;;;5.07;3.15;;;;;;;20.07;49.16;100709.06;5031125;28;20562;-68
2023/07/09 01:18:06;;;;;;;4.28;3.00;;;;;;;20.05;49.20;100711.78;5031292;28;20203;-68
2023/07/09 01:20:36;;;;;;;3.92;2.80;;;;;;;19.99;49.25;100706.78;5030849;28;20260;-68
2023/07/09 01:23:05;;;;;;;3.17;2.78;;;;;;;19.96;49.66;100712.16;5045183;28;20206;-67
2023/07/09 01:25:34;;;;;;;3.45;2.92;;;;;;;19.91;49.58;100708.84;5031493;28;20684;-68
2023/07/09 01:28:02;;;;;;;5.00;2.83;;;;;;;19.94;49.51;100713.97;5044036;28;20225;-68
2023/07/09 01:30:35;;;;;;;5.45;3.13;;;;;;;19.88;49.72;100704.56;5030921;28;20248;-68
2023/07/09 01:33:06;;;;;;;4.85;3.20;;;;;;;19.83;49.94;100705.69;5041467;28;20205;-68
2023/07/09 01:35:36;;;;;;;5.28;3.25;;;;;;;19.76;50.20;100705.91;5031064;28;20547;-66
2023/07/09 01:38:06;;;;;;;3.78;3.10;;;;;;;19.72;50.47;100709.56;5030759;28;20209;-66
2023/07/09 01:40:35;;;;;;;3.95;2.85;;;;;;;19.70;50.42;100711.41;5031000;28;20199;-67
2023/07/09 01:43:07;;;;;;;4.18;3.22;;;;;;;19.65;50.63;100708.09;5030979;28;20739;-66
2023/07/09 01:45:36;;;;;;;3.67;3.30;;;;;;;19.61;50.75;100701.25;5039646;28;20206;-68
2023/07/09 01:48:05;;;;;;;3.55;2.67;;;;;;;19.57;50.80;100704.91;5039640;28;20199;-68
2023/07/09 01:50:33;;;;;;;4.85;3.03;;;;;;;19.51;50.85;100711.22;5035009;28;20207;-67
2023/07/09 01:53:01;;;;;;;4.05;3.10;;;;;;;19.51;50.94;100706.00;5034593;28;20198;-68
2023/07/09 01:55:31;;;;;;;3.65;3.33;;;;;;;19.47;51.21;100719.22;5034840;28;20202;-67
2023/07/09 01:57:59;;;;;;;3.58;3.28;;;;;;;19.43;51.21;100717.63;5034490;28;20675;-66
2023/07/09 02:00:27;;;;;;;5.35;3.28;;;;;;;19.40;51.39;100725.59;5034179;28;20207;-68
2023/07/09 02:02:55;;;;;;;6.28;3.55;;;;;;;19.37;51.44;100726.56;5034307;28;20215;-67
2023/07/09 02:05:23;;;;;;;6.10;3.40;;;;;;;19.36;51.42;100721.38;5034220;28;20199;-67
2023/07/09 02:07:51;;;;;;;4.30;3.28;;;;;;;19.31;51.77;100716.34;5036291;28;20223;-67
2023/07/09 02:10:19;;;;;;;4.25;3.38;;;;;;;19.23;51.88;100721.84;5038026;28;20235;-67
2023/07/09 02:12:49;;;;;;;7.30;3.67;;;;;;;19.17;52.12;100727.28;5034218;28;20202;-68
2023/07/09 02:15:17;;;;;;;6.13;4.10;;;;;;;19.13;52.22;100717.84;5033910;28;20284;-67
2023/07/09 02:17:46;;;;;;;5.93;3.72;;;;;;;19.10;52.40;100720.56;5034106;28;20202;-67
2023/07/09 02:20:15;;;;;;;5.28;3.60;;;;;;;19.09;52.45;100718.88;5034007;28;20298;-66
2023/07/09 02:22:43;;;;;;;4.00;3.60;;;;;;;19.05;52.62;100718.13;5047614;28;20248;-67
2023/07/09 02:25:11;;;;;;;6.15;4.20;;;;;;;19.08;52.65;100721.56;5033981;28;20230;-67
2023/07/09 02:27:40;;;;;;;8.80;3.90;;;;;;;19.07;52.59;100725.91;5033481;28;20234;-67
2023/07/09 02:30:11;;;;;;;4.47;3.67;;;;;;;19.06;52.73;100725.06;5033935;28;20218;-68
2023/07/09 02:32:39;;;;;;;5.65;3.92;;;;;;;19.08;52.61;100725.03;5042241;28;20618;-67
2023/07/09 02:35:08;;;;;;;4.10;3.70;;;;;;;19.04;52.84;100723.44;5034106;28;20214;-68
2023/07/09 02:37:36;;;;;;;4.88;3.80;;;;;;;19.01;52.84;100720.91;5033644;28;20212;-67
2023/07/09 02:40:06;;;;;;;5.43;3.47;;;;;;;18.98;53.10;100721.03;5034034;28;20246;-68
2023/07/09 02:42:34;;;;;;;3.85;3.45;;;;;;;18.96;53.12;100723.69;5033770;28;20206;-67
2023/07/09 02:45:04;;;;;;;5.40;4.03;;;;;;;18.96;53.33;100728.94;5033333;28;20264;-67
2023/07/09 02:47:33;;;;;;;4.20;3.42;;;;;;;18.97;53.27;100725.41;5033482;28;20265;-68
2023/07/09 02:50:02;;;;;;;8.75;5.43;;;;;;;18.95;53.39;100726.34;5033506;28;20658;-67
2023/07/09 02:52:31;;;;;;;6.53;3.38;;;;;;;18.96;53.37;100726.31;5038595;28;20632;-68
2023/07/09 02:54:58;;;;;;;4.20;3.80;;;;;;;18.97;53.35;100727.16;5033586;28;20642;-67
2023/07/09 02:57:26;;;;;;;5.32;3.47;;;;;;;18.93;53.42;100726.41;5041239;28;20205;-66
2023/07/09 02:59:54;;;;;;;3.70;3.40;;;;;;;18.94;53.80;100733.34;5033121;28;20252;-67
2023/07/09 03:02:22;;;;;;;4.05;3.60;;;;;;;18.92;53.46;100729.06;5032789;28;20210;-66
2023/07/09 03:04:52;;;;;;;5.07;3.80;;;;;;;18.88;53.57;100727.47;5033307;28;20210;-68
2023/07/09 03:07:20;;;;;;;7.53;3.72;;;;;;;18.83;53.73;100733.72;5039003;28;20222;-68
2023/07/09 03:09:48;;;;;;;6.85;3.72;;;;;;;18.81;53.79;100732.03;5053326;28;20660;-68
2023/07/09 03:12:16;;;;;;;4.70;3.70;;;;;;;18.77;53.96;100735.66;5034733;28;20296;-66
2023/07/09 03:14:44;;;;;;;5.00;4.03;;;;;;;18.68;54.25;100733.34;5033025;28;20215;-68
2023/07/09 03:17:12;;;;;;;4.47;3.28;;;;;;;18.64;54.50;100737.81;5032897;28;20559;-66
2023/07/09 03:19:39;;;;;;;5.35;3.90;;;;;;;18.67;54.35;100737.72;5033212;28;20207;-67
2023/07/09 03:22:09;;;;;;;4.50;4.10;;;;;;;18.71;54.40;100741.97;5044513;28;20217;-66
2023/07/09 03:24:37;;;;;;;5.68;4.18;;;;;;;18.73;54.39;100739.28;5034992;28;20947;-67
2023/07/09 03:27:06;;;;;;;3.80;3.50;;;;;;;18.77;54.39;100738.28;5042850;28;20303;-66
2023/07/09 03:29:34;;;;;;;5.05;4.00;;;;;;;18.83;54.02;100748.53;5036160;28;20289;-67
2023/07/09 03:32:02;;;;;;;5.43;3.90;;;;;;;18.84;53.98;100747.63;5035755;28;20608;-66
2023/07/09 03:34:30;;;;;;;4.15;3.75;;;;;;;18.89;54.14;100743.09;5038807;28;20203;-68
2023/07/09 03:36:58;;;;;;;6.65;4.05;;;;;;;18.98;53.91;100753.22;5045300;28;20573;-67
2023/07/09 03:39:27;;;;;;;4.57;3.85;;;;;;;19.00;53.66;100756.63;5042773;28;20297;-67
2023/07/09 03:41:55;;;;;;;4.07;3.63;;;;;;;18.95;53.23;100749.84;5032452;28;20213;-67
2023/07/09 03:44:23;;;;;;;4.70;3.88;;;;;;;18.97;53.56;100756.75;5032454;28;20207;-66
2023/07/09 03:46:51;;;;;;;4.20;3.70;;;;;;;18.92;53.87;100761.25;5032054;28;20202;-67
2023/07/09 03:49:19;;;;;;;3.75;3.45;;;;;;;18.84;53.81;100760.66;5032627;28;20638;-66
2023/07/09 03:51:47;;;;;;;4.68;3.70;;;;;;;18.78;54.03;100761.75;5032449;28;20199;-66
2023/07/09 03:54:15;;;;;;;4.18;3.78;;;;;;;18.73;54.22;100758.41;5032322;28;20677;-68
2023/07/09 03:56:45;;;;;;;3.90;3.50;;;;;;;18.65;54.49;100763.03;5036983;28;20209;-65
2023/07/09 03:59:12;;;;;;;4.30;3.50;;;;;;;18.60;54.67;100762.34;5032142;28;20210;-66
2023/07/09 04:01:45;;;;;;;3.67;3.00;;;;;;;18.60;54.61;100762.34;5032183;28;20711;-67
2023/07/09 04:04:14;;;;;;;3.92;3.17;;;;;;;18.61;54.53;100764.03;5032804;28;20629;-67
2023/07/09 04:06:42;;;;;;;4.15;3.20;;;;;;;18.66;54.68;100753.44;5032120;28;20210;-66
2023/07/09 04:09:10;;;;;;;8.70;3.10;;;;;;;18.70;54.35;100763.72;5036142;28;20578;-67
2023/07/09 04:11:38;;;;;;;4.03;3.22;;;;;;;18.70;54.18;100766.31;5032467;28;20217;-66
2023/07/09 04:14:07;;;;;;;4.20;3.65;;;;;;;18.67;54.34;100763.84;5043190;28;20194;-68
2023/07/09 04:16:35;;;;;;;5.45;3.22;;;;;;;18.72;54.18;100761.94;5045074;28;20309;-69
2023/07/09 04:19:03;;;;;;;3.95;3.17;;;;;;;18.77;53.95;100764.38;5032023;28;20203;-67
2023/07/09 04:21:31;;;;;;;3.47;2.80;;;;;;;18.81;53.46;100766.88;5038489;28;20202;-66
2023/07/09 04:23:59;;;;;;;4.32;3.28;;;;;;;18.90;53.48;100762.22;5038850;28;20231;-65
2023/07/09 04:26:28;;;;;;;3.53;3.22;;;;;;;19.05;53.03;100774.75;5031327;28;20722;-67
2023/07/09 04:28:56;;;;;;;5.20;3.17;;;;;;;19.24;52.43;100774.94;5031659;28;20226;-66
2023/07/09 04:31:25;;;;;;;4.57;2.80;;;;;;;19.40;52.06;100768.25;5031761;28;20209;-66
2023/07/09 04:33:53;;;;;;;4.55;3.25;;;;;;;19.63;51.75;100767.47;5039835;28;20217;-66
2023/07/09 04:36:21;;;;;;;2.80;2.60;;;;;;;19.79;50.57;100768.56;5031652;28;20617;-66
2023/07/09 04:38:49;;;;;;;3.30;3.00;;;;;;;19.91;50.35;100771.63;5037093;28;20228;-67
2023/07/09 04:41:17;;;;;;;4.03;2.97;;;;;;;20.08;49.91;100773.59;5035099;28;20213;-67
2023/07/09 04:43:45;;;;;;;4.28;3.00;;;;;;;20.27;49.73;100777.19;5031348;28;20206;-65
2023/07/09 04:46:13;;;;;;;5.75;2.30;;;;;;;20.39;48.93;100774.06;5032731;28;20206;-67
2023/07/09 04:48:42;;;;;;;4.45;2.83;;;;;;;20.50;48.74;100771.88;5031365;28;20226;-67
2023/07/09 04:51:10;;;;;;;5.80;2.53;;;;;;;20.58;48.27;100776.78;5031752;28;20234;-66
2023/07/09 04:53:38;;;;;;;2.65;2.45;;;;;;;20.65;48.18;100788.72;5031510;28;20203;-67
2023/07/09 04:56:07;;;;;;;2.65;2.45;;;;;;;20.75;47.80;100778.72;5031508;28;20710;-67
2023/07/09 04:58:35;;;;;;;3.25;2.70;;;;;;;20.87;47.70;100779.97;5031170;28;20598;-69
2023/07/09 05:01:03;;;;;;;3.25;2.55;;;;;;;21.03;47.34;100780.19;5031092;28;20268;-66
2023/07/09 05:03:31;;;;;;;3.00;2.60;;;;;;;21.27;46.79;100778.25;5030791;28;20277;-66
2023/07/09 05:06:00;;;;;;;4.95;2.75;;;;;;;21.38;46.44;100771.63;5031304;28;20723;-66
2023/07/09 05:08:29;;;;;;;3.03;2.40;;;;;;;21.56;45.88;100775.19;5037009;28;20217;-67
2023/07/09 05:10:58;;;;;;;2.88;2.13;;;;;;;21.79;45.59;100776.75;5030925;28;20289;-67
2023/07/09 05:13:27;;;;;;;3.08;2.25;;;;;;;22.05;45.24;100775.53;5030957;28;20256;-66
2023/07/09 05:15:55;;;;;;;3.33;3.03;;;;;;;22.56;44.20;100779.22;5035354;28;20206;-66
2023/07/09 05:18:24;;;;;;;3.35;2.35;;;;;;;23.51;42.47;100778.75;5030975;28;20364;-66
2023/07/09 05:20:52;;;;;;;3.00;2.70;;;;;;;24.94;38.76;100763.66;5032812;28;20210;-66
2023/07/09 05:23:21;;;;;;;2.78;2.40;;;;;;;26.23;35.63;100772.34;5047687;28;20203;-67
2023/07/09 05:25:49;;;;;;;2.55;2.05;;;;;;;27.58;33.15;100773.75;5035060;28;20783;-66
2023/07/09 05:28:17;;;;;;;3.05;2.40;;;;;;;29.01;30.71;100780.03;5034807;28;20218;-66
2023/07/09 05:30:45;;;;;;;5.60;1.88;;;;;;;30.30;28.49;100784.78;5034945;28;20210;-67
2023/07/09 05:33:13;;;;;;;3.60;1.90;;;;;;;31.95;26.25;100779.50;5043211;28;20198;-66
2023/07/09 05:35:43;;;;;;;4.43;2.00;;;;;;;33.57;24.46;100771.53;5034924;28;20245;-67
2023/07/09 05:38:11;;;;;;;2.13;1.92;;;;;;;35.01;22.59;100775.91;5034826;28;20206;-67
2023/07/09 05:40:41;;;;;;;2.72;2.10;;;;;;;36.30;21.22;100768.47;5034556;28;20207;-67
2023/07/09 05:43:08;;;;;;;3.60;2.00;;;;;;;37.08;20.02;100769.75;5034387;28;20206;-66
2023/07/09 05:45:37;;;;;;;2.78;2.20;;;;;;;37.72;19.03;100765.13;5042235;28;20210;-66
2023/07/09 05:48:05;;;;;;;2.30;2.10;;;;;;;38.39;18.38;100773.44;5039288;28;20202;-65
2023/07/09 05:50:34;;;;;;;2.95;1.98;;;;;;;39.24;17.30;100772.25;5033918;28;20290;-66
2023/07/09 05:53:02;;;;;;;2.40;2.00;;;;;;;39.56;16.83;100773.69;5034709;28;20202;-66
2023/07/09 05:55:30;;;;;;;2.85;2.00;;;;;;;40.08;16.44;100774.47;5041051;28;20673;-66
2023/07/09 05:57:59;;;;;;;3.83;2.10;;;;;;;40.27;16.58;100770.31;5041789;28;20233;-66
2023/07/09 06:00:27;;;;;;;2.55;2.00;;;;;;;40.59;15.68;100774.34;5034305;28;20217;-67
2023/07/09 06:02:56;;;;;;;1.73;1.63;;;;;;;40.97;15.44;100782.06;5034680;28;20686;-65
2023/07/09 06:05:24;;;;;;;2.03;1.80;;;;;;;40.70;15.40;100779.22;5033916;28;20209;-65
2023/07/09 06:07:52;;;;;;;2.92;1.67;;;;;;;39.55;16.08;100788.22;5045145;28;20201;-66
2023/07/09 06:10:21;;;;;;;1.90;1.63;;;;;;;39.41;16.60;100789.09;5037823;28;20226;-65
2023/07/09 06:12:49;;;;;;;3.38;1.67;;;;;;;39.56;16.00;100781.78;5034386;28;20213;-66
2023/07/09 06:15:19;;;;;;;2.90;2.05;;;;;;;39.94;15.84;100786.19;5033831;28;20234;-64
2023/07/09 06:17:47;;;;;;;2.58;1.42;;;;;;;40.45;15.36;100783.34;5042518;28;20210;-66
2023/07/09 06:20:15;;;;;;;2.60;1.70;;;;;;;40.82;14.98;100782.19;5033791;28;20214;-66
2023/07/09 06:22:43;;;;;;;2.55;1.65;;;;;;;40.55;15.06;100783.84;5048142;28;20209;-65
2023/07/09 06:25:11;;;;;;;2.80;1.50;;;;;;;40.48;15.17;100788.38;5034156;28;20213;-66
2023/07/09 06:27:39;;;;;;;1.83;1.63;;;;;;;40.24;14.83;100785.03;5039824;28;20237;-66
2023/07/09 06:30:08;;;;;;;4.22;1.60;;;;;;;40.39;15.15;100782.25;5033838;28;20275;-65
2023/07/09 06:32:37;;;;;;;4.22;1.70;;;;;;;41.02;14.88;100776.94;5038919;28;20205;-66
2023/07/09 06:35:06;;;;;;;3.10;1.67;;;;;;;41.27;14.47;100774.56;5034740;28;20426;-65
2023/07/09 06:37:34;;;;;;;2.25;1.58;;;;;;;41.62;14.40;100782.63;5033492;28;20238;-65
2023/07/09 06:40:03;;;;;;;1.90;1.67;;;;;;;42.14;13.69;100781.94;5033565;28;20209;-66
2023/07/09 06:42:31;;;;;;;1.63;1.42;;;;;;;42.61;13.36;100785.50;5033879;28;20222;-65
2023/07/09 06:44:59;;;;;;;2.55;1.80;;;;;;;43.14;12.84;100784.59;5037182;28;20251;-66
2023/07/09 06:47:27;;;;;;;1.83;1.52;;;;;;;43.23;12.76;100791.44;5043462;28;20206;-65
2023/07/09 06:49:57;;;;;;;4.18;1.73;;;;;;;43.50;12.66;100792.19;5033422;28;20210;-67
2023/07/09 06:52:25;;;;;;;2.42;1.40;;;;;;;44.02;12.58;100801.09;5033482;28;20206;-65
2023/07/09 06:54:53;;;;;;;1.73;1.50;;;;;;;43.58;12.74;100799.25;5033890;28;20206;-66
2023/07/09 06:57:20;;;;;;;2.92;1.45;;;;;;;43.32;13.00;100797.47;5033458;28;20570;-66
2023/07/09 06:59:48;;;;;;;1.83;1.48;;;;;;;43.64;12.42;100793.78;5033345;28;20256;-65
2023/07/09 07:02:18;;;;;;;2.05;1.70;;;;;;;43.88;12.25;100805.78;5033210;28;20209;-65
2023/07/09 07:04:46;;;;;;;1.45;1.23;;;;;;;44.00;12.12;100803.19;5035481;28;20206;-67
2023/07/09 07:07:15;;;;;;;2.17;1.40;;;;;;;44.13;12.20;100815.88;5032491;28;20610;-67
2023/07/09 07:09:43;;;;;;;1.40;1.25;;;;;;;44.87;11.56;100808.78;5038775;28;20626;-65
2023/07/09 07:12:13;;;;;;;2.25;1.42;;;;;;;45.39;11.14;100801.06;5032595;28;20210;-66
2023/07/09 07:14:41;;;;;;;2.50;1.20;;;;;;;44.69;11.65;100803.31;5032807;28;20260;-66
2023/07/09 07:17:10;;;;;;;1.73;1.27;;;;;;;44.38;11.73;100809.66;5032802;28;20697;-67
2023/07/09 07:19:38;;;;;;;2.53;1.45;;;;;;;44.26;11.81;100809.47;5032855;28;20206;-65
2023/07/09 07:22:07;;;;;;;1.88;1.40;;;;;;;44.48;11.98;100804.50;5043851;28;20209;-67
2023/07/09 07:24:36;;;;;;;1.50;1.40;;;;;;;44.53;11.81;100812.84;5035143;28;20224;-66
2023/07/09 07:27:04;;;;;;;1.77;1.30;;;;;;;44.04;11.68;100809.88;5032580;28;20230;-66
2023/07/09 07:29:32;;;;;;;1.65;1.38;;;;;;;43.70;12.44;100802.09;5032593;28;20704;-66
2023/07/09 07:32:01;;;;;;;2.13;1.60;;;;;;;43.94;11.89;100804.09;5035684;28;20248;-67
2023/07/09 07:34:29;;;;;;;2.58;1.40;;;;;;;44.29;12.25;100790.88;5050214;28;20225;-66
2023/07/09 07:36:57;;;;;;;2.20;1.38;;;;;;;43.64;11.80;100793.78;5032506;28;20202;-66
2023/07/09 07:39:25;;;;;;;2.08;1.48;;;;;;;42.79;12.77;100784.03;5032737;28;20229;-67
2023/07/09 07:41:55;;;;;;;1.30;1.20;;;;;;;42.45;12.99;100784.03;5032685;28;20531;-66
2023/07/09 07:44:24;;;;;;;4.20;1.42;;;;;;;42.79;12.72;100786.72;5031525;28;20206;-66
2023/07/09 07:46:51;;;;;;;1.50;1.40;;;;;;;43.02;12.43;100778.16;5032633;28;20214;-66
2023/07/09 07:49:19;;;;;;;1.48;1.27;;;;;;;42.98;12.76;100777.75;5032347;28;20222;-67
2023/07/09 07:51:48;;;;;;;2.13;1.27;;;;;;;43.08;12.75;100778.13;5032473;28;20601;-67
2023/07/09 07:54:18;;;;;;;1.15;1.05;;;;;;;42.45;12.93;100775.06;5032295;28;20594;-68
2023/07/09 07:56:46;;;;;;;5.38;1.50;;;;;;;41.01;13.68;100775.25;5032177;28;20560;-68
2023/07/09 07:59:16;;;;;;;4.53;1.33;;;;;;;38.97;15.29;100781.00;5031837;28;20221;-67
2023/07/09 08:01:44;;;;;;;2.20;1.30;;;;;;;37.08;17.26;100777.81;5033636;28;20203;-67
2023/07/09 08:04:12;;;;;;;1.55;1.35;;;;;;;35.08;19.48;100791.19;5046260;28;20209;-67
2023/07/09 08:06:40;;;;;;;3.50;1.17;;;;;;;33.49;21.53;100784.81;5030814;28;20198;-66
2023/07/09 08:09:08;;;;;;;2.10;1.45;;;;;;;32.32;22.77;100786.81;5038054;28;20203;-67
2023/07/09 08:11:36;;;;;;;1.40;1.00;;;;;;;31.43;23.20;100790.28;5032087;28;20210;-68
2023/07/09 08:14:06;;;;;;;1.40;1.05;;;;;;;30.78;23.82;100786.97;5031518;28;20221;-67
2023/07/09 08:16:35;;;;;;;3.08;1.73;;;;;;;30.20;24.53;100785.66;5031558;28;20206;-68
2023/07/09 08:19:04;;;;;;;1.50;1.00;;;;;;;29.55;24.55;100787.28;5031883;28;20665;-66
2023/07/09 08:21:32;;;;;;;1.67;1.17;;;;;;;28.96;25.22;100795.44;5038562;28;20597;-68
2023/07/09 08:24:00;;;;;;;1.48;1.38;;;;;;;28.55;26.45;100791.47;5039011;28;20576;-68
2023/07/09 08:26:28;;;;;;;1.50;1.30;;;;;;;28.24;27.54;100788.38;5031662;28;20666;-67
2023/07/09 08:28:56;;;;;;;1.13;1.00;;;;;;;27.92;27.15;100793.41;5031437;28;20265;-67
2023/07/09 08:31:25;;;;;;;2.78;1.30;;;;;;;27.70;27.88;100796.72;5031504;28;20211;-67
2023/07/09 08:33:55;;;;;;;1.40;1.25;;;;;;;27.67;28.67;100805.72;5036841;28;20324;-66
2023/07/09 08:36:24;;;;;;;1.73;1.30;;;;;;;27.71;28.14;100806.34;5030941;28;20211;-67
2023/07/09 08:38:55;;;;;;;1.52;1.30;;;;;;;27.72;27.83;100805.38;5031303;28;20210;-67
2023/07/09 08:41:38;;;;;;;1.75;1.10;;;;;;;27.63;28.44;100798.13;5031217;28;20632;-69
2023/07/09 08:44:22;;;;;;;1.60;1.30;;;;;;;27.62;29.18;100799.91;5031907;28;20248;-67
2023/07/09 08:46:59;;;;;;;1.35;1.25;;;;;;;27.69;29.16;100792.41;5045624;28;20252;-66
2023/07/09 08:49:38;;;;;;;1.70;1.23;;;;;;;27.86;29.21;100793.84;5031507;28;20240;-67
2023/07/09 08:52:14;;;;;;;1.40;1.30;;;;;;;27.91;29.50;100794.34;5038721;28;20201;-67
2023/07/09 08:54:45;;;;;;;1.50;1.20;;;;;;;27.98;29.60;100781.50;5037295;28;20245;-67
2023/07/09 08:57:22;;;;;;;1.60;1.17;;;;;;;27.93;26.75;100781.84;5031185;28;20213;-68
2023/07/09 08:59:52;;;;;;;2.08;1.00;;;;;;;27.52;26.80;100779.50;5031749;28;20572;-67
2023/07/09 09:02:31;;;;;;;1.23;0.77;;;;;;;27.33;27.03;100783.44;5031735;28;20629;-68
2023/07/09 09:05:03;;;;;;;2.05;1.02;;;;;;;27.39;27.32;100785.63;5030959;28;20206;-67
2023/07/09 09:07:42;;;;;;;3.30;2.78;;;;;;;27.52;27.24;100793.56;5031432;28;20313;-67
2023/07/09 09:10:17;;;;;;;1.27;1.00;;;;;;;27.52;26.79;100795.38;5031051;28;20749;-67
2023/07/09 09:13:00;;;;;;;1.98;1.05;;;;;;;27.48;27.44;100780.69;5030879;28;20709;-66
2023/07/09 09:15:29;;;;;;;2.20;1.15;;;;;;;27.49;27.64;100779.72;5031292;28;20628;-67
2023/07/09 09:18:11;;;;;;;1.50;1.05;;;;;;;27.55;28.32;100784.59;5031090;28;20207;-67
2023/07/09 09:20:42;;;;;;;1.23;1.13;;;;;;;27.64;28.50;100781.25;5031108;28;20608;-68
2023/07/09 09:23:15;;;;;;;2.03;1.00;;;;;;;27.75;27.81;100786.66;5036485;28;20198;-67
2023/07/09 09:25:51;;;;;;;1.38;1.00;;;;;;;27.81;27.19;100791.53;5030759;28;20713;-68
2023/07/09 09:28:39;;;;;;;1.30;1.20;;;;;;;27.90;26.86;100776.78;5031442;28;20245;-68
2023/07/09 09:31:09;;;;;;;1.33;1.20;;;;;;;27.92;26.71;100778.38;5030709;28;20226;-67
2023/07/09 09:33:41;;;;;;;2.55;0.98;;;;;;;27.95;26.17;100777.31;5038969;28;20202;-68
2023/07/09 09:36:17;;;;;;;2.60;1.00;;;;;;;28.00;26.30;100782.25;5031004;28;20202;-68
2023/07/09 09:38:45;;;;;;;2.30;1.20;;;;;;;28.07;26.32;100772.91;5031043;28;20255;-69
2023/07/09 09:41:15;;;;;;;1.67;0.93;;;;;;;28.20;26.36;100778.97;5030534;28;20202;-68
2023/07/09 09:43:45;;;;;;;1.27;1.15;;;;;;;28.34;26.23;100770.84;5030784;28;20214;-68
2023/07/09 09:46:19;;;;;;;1.20;1.10;;;;;;;28.45;25.66;100785.16;5044856;28;20245;-67
2023/07/09 09:48:49;;;;;;;3.45;1.20;;;;;;;28.43;25.43;100769.38;5030941;28;20209;-67
2023/07/09 09:51:19;;;;;;;3.38;1.00;;;;;;;28.60;25.44;100773.38;5030619;28;20219;-66
2023/07/09 09:53:50;;;;;;;1.30;1.20;;;;;;;28.65;25.35;100766.78;5030619;28;20203;-67
2023/07/09 09:56:21;;;;;;;1.65;0.95;;;;;;;28.59;25.17;100771.69;5030606;28;20256;-67
2023/07/09 09:58:54;;;;;;;1.10;1.00;;;;;;;28.68;25.13;100773.66;5034792;28;20271;-67
2023/07/09 10:01:27;;;;;;;2.78;1.00;;;;;;;29.10;25.19;100774.00;5030662;28;20195;-66
2023/07/09 10:03:58;;;;;;;2.75;1.20;;;;;;;29.68;24.48;100777.41;5030586;28;20214;-68
2023/07/09 10:06:36;;;;;;;1.50;1.17;;;;;;;30.56;22.95;100768.44;5030962;28;20597;-67
2023/07/09 10:09:16;;;;;;;1.23;1.10;;;;;;;31.60;22.29;100756.84;5048150;28;20213;-66
2023/07/09 10:11:49;;;;;;;2.30;1.00;;;;;;;32.32;20.29;100758.31;5034454;28;20638;-68
2023/07/09 10:14:31;;;;;;;1.65;1.27;;;;;;;33.04;19.82;100762.34;5034422;28;20203;-68
2023/07/09 10:17:05;;;;;;;1.38;1.00;;;;;;;34.37;18.53;100761.84;5033950;28;20210;-67
2023/07/09 10:19:39;;;;;;;1.30;1.10;;;;;;;35.63;17.03;100760.47;5034107;28;20298;-67
2023/07/09 10:22:17;;;;;;;1.30;0.90;;;;;;;36.33;16.26;100757.41;5045748;28;20198;-67
2023/07/09 10:24:56;;;;;;;1.42;0.95;;;;;;;37.07;15.33;100757.34;5034614;28;20202;-66
2023/07/09 10:27:33;;;;;;;1.27;0.90;;;;;;;37.91;14.78;100753.94;5033728;28;20662;-67
2023/07/09 10:30:20;;;;;;;1.25;0.88;;;;;;;38.66;13.94;100752.31;5033974;28;20650;-66
2023/07/09 10:33:04;;;;;;;2.63;0.95;;;;;;;38.79;13.99;100752.50;5034435;28;20535;-67
2023/07/09 10:35:39;;;;;;;1.13;0.77;;;;;;;38.27;14.42;100747.94;5033503;28;20213;-66
2023/07/09 10:38:23;;;;;;;0.80;0.80;;;;;;;38.14;14.28;100742.31;5033492;28;20281;-66
2023/07/09 10:40:55;;;;;;;1.23;0.60;;;;;;;37.32;14.82;100748.16;5033704;28;20642;-66
2023/07/09 10:43:36;;;;;;;1.05;0.90;;;;;;;37.27;15.29;100747.88;5033407;28;20206;-65
2023/07/09 10:46:11;;;;;;;2.42;1.10;;;;;;;38.24;14.53;100734.84;5046214;28;20248;-68
2023/07/09 10:48:43;;;;;;;1.58;0.95;;;;;;;39.33;13.49;100740.66;5033976;28;20277;-69
2023/07/09 10:51:22;;;;;;;1.27;0.70;;;;;;;39.95;12.94;100741.94;5033591;28;20214;-68
2023/07/09 10:53:57;;;;;;;0.85;0.80;;;;;;;40.14;12.73;100729.69;5046258;28;20201;-68
2023/07/09 10:56:29;;;;;;;1.13;0.80;;;;;;;40.28;12.46;100736.88;5032787;28;20255;-66
2023/07/09 10:59:05;;;;;;;1.27;0.85;;;;;;;40.17;12.06;100743.63;5033579;28;20213;-67
2023/07/09 11:01:39;;;;;;;1.02;0.80;;;;;;;39.77;12.39;100732.47;5033172;28;20228;-66
2023/07/09 11:04:17;;;;;;;0.88;0.65;;;;;;;39.07;13.03;100733.00;5033817;28;20217;-67
2023/07/09 11:06:49;;;;;;;1.08;0.77;;;;;;;38.05;13.75;100733.47;5033274;28;20241;-68
2023/07/09 11:09:25;;;;;;;1.05;0.95;;;;;;;36.67;14.77;100732.22;5038841;28;20213;-66
2023/07/09 11:11:58;;;;;;;1.00;0.88;;;;;;;36.16;15.38;100728.88;5032970;28;20217;-67
2023/07/09 11:14:32;;;;;;;1.23;0.68;;;;;;;35.64;15.96;100726.44;5033332;28;20225;-67
2023/07/09 11:17:01;;;;;;;0.80;0.70;;;;;;;35.61;16.17;100735.69;5032741;28;20202;-67
2023/07/09 11:19:30;;;;;;;1.02;0.93;;;;;;;35.97;16.03;100741.56;5031658;28;20248;-68
2023/07/09 11:22:05;;;;;;;1.20;0.80;;;;;;;36.27;15.25;100731.22;5043417;28;20202;-66
2023/07/09 11:24:46;;;;;;;0.95;0.80;;;;;;;35.78;15.45;100741.88;5035877;28;20194;-68
2023/07/09 11:27:23;;;;;;;2.20;0.88;;;;;;;35.03;16.23;100744.47;5041159;28;20693;-69
2023/07/09 11:29:59;;;;;;;1.02;0.70;;;;;;;35.27;16.34;100730.31;5032648;28;20297;-67
2023/07/09 11:32:29;;;;;;;2.70;0.60;;;;;;;35.35;15.90;100730.38;5045062;28;20715;-67
2023/07/09 11:35:08;;;;;;;1.10;0.88;;;;;;;35.38;16.01;100731.88;5033352;28;20233;-67
2023/07/09 11:37:46;;;;;;;0.80;0.57;;;;;;;35.47;15.41;100734.41;5032549;28;20199;-67
2023/07/09 11:40:18;;;;;;;1.05;0.88;;;;;;;35.56;15.23;100735.31;5033362;28;20225;-68